Time;durP1;ratioP1;P1;durP2;ratioP2;P2;SDS_P1;SDS_P2;PMS_P1;PMS_P2;Temp;Humidity;BMP_temperature;BMP_pressure;BME280_temperature;BME280_humidity;BME280_pressure;Samples;Min_cycle;Max_cycle;Signal;HPM_P1;HPM_P2
2022/01/27 00:01:18;;;;;;;59.58;30.33;;;4.70;99.90;;;;;;5020377;28;20594;-59
2022/01/27 00:04:01;;;;;;;52.15;28.92;;;4.60;99.90;;;;;;5030948;28;20051;-59
2022/01/27 00:06:26;;;;;;;50.40;27.55;;;4.70;99.90;;;;;;5031037;28;20113;-59
2022/01/27 00:08:58;;;;;;;55.58;30.13;;;4.50;99.90;;;;;;5030209;28;20120;-59
2022/01/27 00:11:23;;;;;;;55.67;29.85;;;4.60;99.90;;;;;;5032542;28;20029;-58
2022/01/27 00:13:57;;;;;;;53.85;29.20;;;4.60;99.90;;;;;;5030046;28;20094;-58
2022/01/27 00:16:26;;;;;;;50.20;28.77;;;4.60;99.90;;;;;;5030461;28;20099;-59
2022/01/27 00:18:54;;;;;;;52.25;27.30;;;4.60;99.90;;;;;;5031979;28;20098;-59
2022/01/27 00:21:24;;;;;;;57.38;29.70;;;4.60;99.90;;;;;;5027088;28;20018;-58
2022/01/27 00:23:50;;;;;;;53.13;27.17;;;4.60;99.90;;;;;;5029357;28;20622;-59
2022/01/27 00:26:17;;;;;;;53.42;29.08;;;4.60;99.90;;;;;;5028689;28;20032;-58
2022/01/27 00:28:45;;;;;;;51.50;28.98;;;4.60;99.90;;;;;;5029948;28;20037;-59
2022/01/27 00:31:11;;;;;;;52.58;28.67;;;4.60;99.90;;;;;;5030369;28;21342;-59
2022/01/27 00:33:37;;;;;;;51.40;27.63;;;4.50;99.90;;;;;;5031860;28;20087;-58
2022/01/27 00:36:03;;;;;;;49.60;28.45;;;4.50;99.90;;;;;;5024486;28;20029;-59
2022/01/27 00:38:30;;;;;;;52.92;28.10;;;4.50;99.90;;;;;;5029582;28;20540;-59
2022/01/27 00:40:56;;;;;;;54.55;28.73;;;4.40;99.90;;;;;;5028763;28;20043;-58
2022/01/27 00:43:22;;;;;;;49.58;28.95;;;4.50;99.90;;;;;;5030080;28;21314;-58
2022/01/27 00:45:47;;;;;;;54.47;28.58;;;4.50;99.90;;;;;;5029368;28;20021;-59
2022/01/27 00:48:16;;;;;;;50.25;28.33;;;4.50;99.90;;;;;;5029655;28;20028;-58
2022/01/27 00:50:42;;;;;;;47.47;28.00;;;4.60;99.90;;;;;;5030261;28;20029;-58
2022/01/27 00:53:24;;;;;;;49.42;27.40;;;4.50;99.90;;;;;;5030583;28;20100;-59
2022/01/27 00:55:51;;;;;;;51.17;28.55;;;4.50;99.90;;;;;;5029792;28;20043;-58
2022/01/27 00:58:47;;;;;;;49.78;27.65;;;4.40;99.90;;;;;;5027667;28;20025;-58
2022/01/27 01:01:17;;;;;;;56.15;29.50;;;;;;;;;;5028885;28;20536;-59
2022/01/27 01:03:46;;;;;;;53.15;28.40;;;4.20;99.90;;;;;;5029975;28;20026;-58
2022/01/27 01:06:24;;;;;;;53.95;28.05;;;4.50;99.90;;;;;;5027842;28;20076;-58
2022/01/27 01:19:39;;;;;;;51.22;27.35;;;3.50;99.90;;;;;;5028883;28;20063;-59
2022/01/27 01:29:25;;;;;;;51.92;28.95;;;3.60;99.90;;;;;;5027701;28;20028;-58
2022/01/27 01:30:44;;;;;;;51.72;28.08;;;4.40;99.90;;;;;;5027539;28;20025;-59
2022/01/27 01:33:12;;;;;;;55.55;28.67;;;4.60;99.90;;;;;;5030077;28;20324;-58
2022/01/27 01:35:48;;;;;;;57.38;29.50;;;4.60;99.90;;;;;;5029154;28;20413;-59
2022/01/27 01:38:18;;;;;;;55.78;28.38;;;4.50;99.90;;;;;;5026998;28;20033;-59
2022/01/27 01:40:45;;;;;;;55.28;28.85;;;4.40;99.90;;;;;;5028452;28;20499;-59
2022/01/27 01:43:11;;;;;;;58.00;30.52;;;4.60;99.90;;;;;;5026686;28;20433;-59
2022/01/27 01:45:37;;;;;;;54.88;28.17;;;4.40;99.90;;;;;;5024993;28;20044;-58
2022/01/27 01:48:03;;;;;;;55.25;28.60;;;4.20;99.90;;;;;;5026505;28;20036;-59
2022/01/27 01:50:29;;;;;;;56.53;28.42;;;4.40;99.90;;;;;;5025837;28;20211;-59
2022/01/27 01:52:54;;;;;;;57.50;27.77;;;4.20;99.90;;;;;;5023145;28;20554;-58
2022/01/27 01:55:20;;;;;;;58.15;29.08;;;4.20;99.90;;;;;;5026823;28;20040;-58
2022/01/27 01:57:46;;;;;;;56.17;28.20;;;4.30;99.90;;;;;;5027993;28;20377;-58
2022/01/27 02:00:13;;;;;;;56.25;28.90;;;4.30;99.90;;;;;;5028908;28;20303;-59
2022/01/27 02:02:41;;;;;;;55.50;28.85;;;4.30;99.90;;;;;;5029153;28;20463;-59
2022/01/27 02:05:08;;;;;;;55.00;27.90;;;3.90;99.90;;;;;;5029395;28;20461;-58
2022/01/27 02:07:55;;;;;;;54.85;26.52;;;4.20;99.90;;;;;;5024356;28;20026;-59
2022/01/27 02:17:50;;;;;;;53.83;25.73;;;;;;;;;;5031275;28;20021;-58
2022/01/27 02:18:45;;;;;;;50.58;25.92;;;;;;;;;;5026291;28;20392;-58
2022/01/27 02:21:12;;;;;;;58.03;28.30;;;;;;;;;;5031216;28;20037;-59
2022/01/27 02:23:37;;;;;;;53.60;26.50;;;4.40;99.90;;;;;;5026810;28;20083;-58
2022/01/27 02:26:03;;;;;;;49.22;25.48;;;;;;;;;;5028929;28;20060;-60
2022/01/27 02:28:30;;;;;;;50.15;26.35;;;;;;;;;;5027324;28;20029;-58
2022/01/27 02:30:56;;;;;;;53.03;28.08;;;;;;;;;;5030071;28;20422;-58
2022/01/27 02:33:30;;;;;;;52.60;26.45;;;;;;;;;;5035030;28;20028;-59
2022/01/27 02:35:56;;;;;;;55.10;27.10;;;;;;;;;;5033511;28;20028;-58
2022/01/27 02:38:23;;;;;;;49.90;26.05;;;;;;;;;;5028523;28;20114;-58
2022/01/27 02:40:57;;;;;;;55.83;26.35;;;4.40;99.90;;;;;;5033652;28;20045;-59
2022/01/27 02:43:23;;;;;;;49.90;25.50;;;4.60;99.90;;;;;;5033555;28;20029;-58
2022/01/27 02:46:17;;;;;;;50.25;26.38;;;;;;;;;;5029664;28;20024;-59
2022/01/27 02:48:43;;;;;;;;;;;;;;;;;;5028405;28;20064;-58
2022/01/27 02:51:09;;;;;;;48.95;26.00;;;;;;;;;;5032362;28;19924;-58
2022/01/27 02:53:35;;;;;;;49.15;24.52;;;;;;;;;;5028550;28;20061;-59
2022/01/27 02:56:01;;;;;;;51.55;26.50;;;4.30;99.90;;;;;;5036429;28;20056;-59
2022/01/27 02:58:26;;;;;;;50.33;26.42;;;4.40;99.90;;;;;;5029907;28;20831;-59
2022/01/27 03:00:52;;;;;;;51.60;25.00;;;4.50;99.90;;;;;;5029658;28;20116;-59
2022/01/27 03:03:18;;;;;;;47.13;25.90;;;;;;;;;;5032108;28;20400;-58
2022/01/27 03:05:44;;;;;;;48.03;25.83;;;4.40;99.90;;;;;;5031318;28;20033;-58
2022/01/27 03:08:10;;;;;;;46.10;25.08;;;4.50;99.90;;;;;;5026994;28;20396;-59
2022/01/27 03:10:48;;;;;;;47.75;24.80;;;4.50;99.90;;;;;;5030226;28;20407;-59
2022/01/27 03:13:13;;;;;;;46.05;25.70;;;4.50;99.90;;;;;;5027240;28;20041;-59
2022/01/27 03:15:39;;;;;;;45.72;23.83;;;4.60;99.90;;;;;;5029826;28;20044;-59
2022/01/27 03:18:04;;;;;;;48.42;26.50;;;4.50;99.90;;;;;;5031331;28;20022;-58
2022/01/27 03:20:33;;;;;;;45.17;24.55;;;4.50;99.90;;;;;;5030500;28;20030;-60
2022/01/27 03:23:00;;;;;;;47.17;24.58;;;4.60;99.90;;;;;;5025802;28;20039;-58
2022/01/27 03:25:26;;;;;;;50.33;26.15;;;4.60;99.90;;;;;;5034484;28;20029;-59
2022/01/27 03:27:51;;;;;;;45.28;23.73;;;4.50;99.90;;;;;;5030556;28;20119;-58
2022/01/27 03:30:17;;;;;;;49.70;24.77;;;4.60;99.90;;;;;;5031060;28;20667;-59
2022/01/27 03:32:44;;;;;;;45.08;25.30;;;4.50;99.90;;;;;;5030679;28;20034;-59
2022/01/27 03:35:10;;;;;;;45.63;23.30;;;4.50;99.90;;;;;;5030769;28;20061;-59
2022/01/27 03:37:35;;;;;;;46.97;24.38;;;4.40;99.90;;;;;;5030224;28;20025;-58
2022/01/27 03:40:04;;;;;;;47.20;24.90;;;4.50;99.90;;;;;;5033080;28;20024;-59
2022/01/27 03:42:30;;;;;;;48.28;25.73;;;4.40;99.90;;;;;;5030797;28;20034;-59
2022/01/27 03:44:56;;;;;;;42.95;24.15;;;;;;;;;;5027452;28;20036;-59
2022/01/27 03:47:22;;;;;;;49.60;23.90;;;4.50;99.90;;;;;;5032909;28;20398;-58
2022/01/27 03:49:48;;;;;;;47.10;24.80;;;;;;;;;;5030877;28;20037;-59
2022/01/27 03:52:18;;;;;;;45.65;24.38;;;;;;;;;;5031191;28;20453;-59
2022/01/27 03:54:44;;;;;;;45.30;24.65;;;4.30;99.90;;;;;;5030044;28;20444;-58
2022/01/27 03:57:10;;;;;;;41.15;23.75;;;4.40;99.90;;;;;;5030907;28;20034;-58
2022/01/27 03:59:35;;;;;;;45.22;23.98;;;4.40;99.90;;;;;;5031574;28;20481;-58
2022/01/27 04:02:04;;;;;;;43.97;24.38;;;4.40;99.90;;;;;;5026993;28;20758;-58
2022/01/27 04:04:30;;;;;;;50.25;25.77;;;4.50;99.90;;;;;;5032419;28;20033;-59
2022/01/27 04:06:57;;;;;;;45.90;25.23;;;4.50;99.90;;;;;;5031662;28;20068;-59
2022/01/27 04:09:24;;;;;;;46.78;23.33;;;4.50;99.90;;;;;;5030175;28;20513;-58
2022/01/27 04:11:50;;;;;;;44.08;24.08;;;4.50;99.90;;;;;;5029977;28;20128;-59
2022/01/27 04:14:16;;;;;;;45.92;23.98;;;4.60;99.90;;;;;;5026405;28;20153;-59
2022/01/27 04:16:41;;;;;;;48.17;25.38;;;4.50;99.90;;;;;;5032236;28;20485;-58
2022/01/27 04:19:07;;;;;;;43.15;24.33;;;4.60;99.90;;;;;;5030284;28;20047;-58
2022/01/27 04:21:33;;;;;;;42.75;24.13;;;4.60;99.90;;;;;;5030965;28;20029;-59
2022/01/27 04:23:58;;;;;;;43.28;23.63;;;4.60;99.90;;;;;;5028219;28;20025;-58
2022/01/27 04:26:34;;;;;;;46.22;23.42;;;;;;;;;;5029813;28;20111;-58
2022/01/27 04:29:01;;;;;;;47.08;24.10;;;;;;;;;;5030513;28;20104;-59
2022/01/27 04:31:29;;;;;;;49.50;23.42;;;;;;;;;;5032395;28;20186;-58
2022/01/27 04:33:56;;;;;;;44.28;23.23;;;;;;;;;;5030576;28;20025;-58
2022/01/27 04:36:29;;;;;;;43.67;22.90;;;;;;;;;;5028579;28;20103;-59
2022/01/27 04:39:44;;;;;;;43.65;24.15;;;;;;;;;;5026765;28;20037;-58
2022/01/27 04:41:53;;;;;;;41.80;22.27;;;;;;;;;;5026707;28;20052;-59
2022/01/27 04:47:06;;;;;;;43.70;23.88;;;;;;;;;;5030137;28;20040;-59
2022/01/27 04:49:33;;;;;;;43.22;22.90;;;;;;;;;;5028101;28;20033;-59
2022/01/27 04:52:00;;;;;;;44.22;22.10;;;;;;;;;;5029952;28;20036;-59
2022/01/27 04:54:37;;;;;;;40.83;21.63;;;;;;;;;;5028940;28;20052;-59
2022/01/27 04:57:05;;;;;;;44.20;22.55;;;;;;;;;;5028963;28;20148;-58
2022/01/27 04:59:38;;;;;;;42.38;23.02;;;;;;;;;;5028508;28;20029;-59
2022/01/27 05:02:11;;;;;;;37.03;17.88;;;;;;;;;;5030699;28;20091;-58
2022/01/27 05:04:43;;;;;;;40.42;21.88;;;;;;;;;;5032616;28;20040;-59
2022/01/27 05:07:10;;;;;;;44.50;22.50;;;;;;;;;;5029075;28;20485;-58
2022/01/27 05:09:38;;;;;;;40.83;21.98;;;;;;;;;;5026784;28;20108;-59
2022/01/27 05:12:16;;;;;;;45.28;22.27;;;;;;;;;;5027586;28;20087;-58
2022/01/27 05:14:44;;;;;;;43.50;22.60;;;;;;;;;;5029969;28;20142;-59
2022/01/27 05:17:11;;;;;;;44.90;21.05;;;;;;;;;;5027160;28;20061;-59
2022/01/27 05:19:38;;;;;;;43.47;22.27;;;;;;;;;;5030266;28;20037;-58
2022/01/27 05:22:04;;;;;;;43.00;21.88;;;;;;;;;;5025987;28;20017;-58
2022/01/27 05:24:29;;;;;;;43.88;22.10;;;;;;;;;;5029027;28;20072;-58
2022/01/27 05:26:55;;;;;;;41.38;21.80;;;;;;;;;;5028764;28;20036;-58
2022/01/27 05:29:21;;;;;;;43.58;23.05;;;;;;;;;;5029657;28;20025;-58
2022/01/27 05:31:49;;;;;;;40.88;21.38;;;;;;;;;;5029312;28;20475;-58
2022/01/27 05:34:15;;;;;;;42.05;22.27;;;;;;;;;;5028175;28;20230;-60
2022/01/27 05:36:41;;;;;;;40.75;21.45;;;;;;;;;;5030494;28;20634;-59
2022/01/27 05:39:07;;;;;;;41.63;21.73;;;;;;;;;;5024493;28;20033;-59
2022/01/27 05:41:33;;;;;;;40.15;21.67;;;;;;;;;;5026311;28;20095;-59
2022/01/27 05:43:59;;;;;;;40.72;20.60;;;;;;;;;;5030258;28;20033;-58
2022/01/27 05:46:25;;;;;;;44.10;22.25;;;;;;;;;;5029059;28;20575;-58
2022/01/27 05:48:51;;;;;;;37.10;20.67;;;;;;;;;;5023934;28;20104;-59
2022/01/27 05:51:17;;;;;;;43.72;21.70;;;;;;;;;;5028117;28;20033;-59
2022/01/27 05:53:43;;;;;;;38.00;19.73;;;;;;;;;;5027968;28;20688;-59
2022/01/27 05:56:09;;;;;;;41.05;20.00;;;;;;;;;;5032614;28;20037;-58
2022/01/27 05:58:35;;;;;;;40.65;20.45;;;;;;;;;;5029157;28;20045;-59
2022/01/27 06:01:01;;;;;;;40.35;21.33;;;;;;;;;;5031156;28;20661;-59
2022/01/27 06:03:27;;;;;;;41.92;21.23;;;;;;;;;;5026359;28;20030;-58
2022/01/27 06:05:53;;;;;;;38.17;21.02;;;;;;;;;;5028484;28;21673;-59
2022/01/27 06:08:19;;;;;;;37.50;19.70;;;;;;;;;;5029892;28;20111;-59
2022/01/27 06:10:45;;;;;;;38.33;20.33;;;;;;;;;;5028117;28;20051;-58
2022/01/27 06:13:11;;;;;;;35.90;19.83;;;;;;;;;;5030592;28;20178;-59
2022/01/27 06:15:37;;;;;;;39.00;20.95;;;;;;;;;;5027995;28;20539;-58
2022/01/27 06:18:03;;;;;;;38.55;19.42;;;;;;;;;;5028341;28;20083;-58
2022/01/27 06:20:29;;;;;;;36.28;20.15;;;;;;;;;;5030439;28;20045;-58
2022/01/27 06:22:59;;;;;;;38.95;20.75;;;;;;;;;;5027493;28;20037;-59
2022/01/27 06:25:26;;;;;;;42.60;21.05;;;;;;;;;;5029566;28;21788;-59
2022/01/27 06:27:52;;;;;;;40.50;21.15;;;;;;;;;;5027680;28;20434;-58
2022/01/27 06:30:18;;;;;;;38.15;20.65;;;;;;;;;;5030222;28;20022;-58
2022/01/27 06:32:44;;;;;;;39.17;20.45;;;;;;;;;;5031327;28;20250;-59
2022/01/27 06:35:10;;;;;;;40.45;20.33;;;;;;;;;;5029243;28;20079;-59
2022/01/27 06:37:37;;;;;;;36.50;21.05;;;;;;;;;;5026784;28;20407;-59
2022/01/27 06:40:04;;;;;;;37.85;20.45;;;;;;;;;;5028060;28;20029;-61
2022/01/27 06:42:30;;;;;;;38.20;21.23;;;;;;;;;;5029214;28;20029;-59
2022/01/27 06:44:56;;;;;;;39.20;20.92;;;;;;;;;;5030455;28;20025;-59
2022/01/27 06:47:22;;;;;;;40.55;21.25;;;;;;;;;;5026080;28;20025;-60
2022/01/27 06:49:48;;;;;;;42.20;21.17;;;;;;;;;;5029426;28;20025;-59
2022/01/27 06:52:14;;;;;;;38.88;20.27;;;;;;;;;;5027790;28;20048;-59
2022/01/27 06:54:41;;;;;;;39.90;20.83;;;;;;;;;;5027189;28;20032;-60
2022/01/27 06:57:07;;;;;;;39.28;21.13;;;;;;;;;;5025650;28;20101;-59
2022/01/27 06:59:34;;;;;;;38.88;20.10;;;;;;;;;;5028751;28;20030;-59
2022/01/27 07:02:01;;;;;;;36.75;19.13;;;;;;;;;;5026544;28;20029;-60
2022/01/27 07:04:27;;;;;;;37.95;19.52;;;;;;;;;;5030902;28;20389;-59
2022/01/27 07:06:53;;;;;;;39.10;20.70;;;;;;;;;;5028489;28;20029;-60
2022/01/27 07:09:19;;;;;;;42.30;21.00;;;;;;;;;;5024630;28;20026;-60
2022/01/27 07:11:45;;;;;;;39.63;20.83;;;;;;;;;;5028107;28;20078;-60
2022/01/27 07:14:12;;;;;;;40.78;21.00;;;;;;;;;;5030049;28;20108;-60
2022/01/27 07:16:38;;;;;;;43.63;20.92;;;;;;;;;;5027158;28;20030;-60
2022/01/27 07:19:04;;;;;;;39.05;20.27;;;;;;;;;;5032059;28;20022;-59
2022/01/27 07:21:30;;;;;;;39.35;20.85;;;;;;;;;;5033151;28;20029;-60
2022/01/27 07:23:56;;;;;;;42.88;20.13;;;;;;;;;;5029092;28;20052;-59
2022/01/27 07:26:26;;;;;;;42.22;21.67;;;;;;;;;;5031450;28;20106;-60
2022/01/27 07:28:53;;;;;;;39.78;20.42;;;;;;;;;;5028641;28;20022;-60
2022/01/27 07:31:19;;;;;;;40.17;21.92;;;;;;;;;;5030892;28;20013;-60
2022/01/27 07:33:47;;;;;;;44.42;24.25;;;;;;;;;;5029723;28;20025;-60
2022/01/27 07:36:13;;;;;;;42.25;21.80;;;;;;;;;;5029887;28;20056;-59
2022/01/27 07:38:39;;;;;;;42.22;22.77;;;;;;;;;;5027391;28;20533;-59
2022/01/27 07:41:05;;;;;;;42.65;21.13;;;;;;;;;;5030667;28;20405;-59
2022/01/27 07:43:31;;;;;;;43.90;23.73;;;;;;;;;;5030606;28;20443;-60
2022/01/27 07:45:59;;;;;;;47.05;24.40;;;;;;;;;;5029982;28;20029;-60
2022/01/27 07:48:25;;;;;;;45.65;22.73;;;;;;;;;;5030521;28;20032;-60
2022/01/27 07:50:51;;;;;;;46.10;22.48;;;;;;;;;;5030308;28;20025;-60
2022/01/27 07:53:17;;;;;;;47.30;22.83;;;;;;;;;;5029698;28;20071;-60
2022/01/27 07:55:43;;;;;;;47.97;23.08;;;;;;;;;;5011923;28;20109;-60
2022/01/27 07:58:09;;;;;;;49.97;23.23;;;;;;;;;;5028627;28;20029;-60
2022/01/27 08:00:36;;;;;;;50.72;24.13;;;;;;;;;;5030377;28;20681;-59
2022/01/27 08:03:02;;;;;;;50.75;25.75;;;;;;;;;;5030775;28;20040;-60
2022/01/27 08:05:28;;;;;;;57.25;25.75;;;;;;;;;;5029121;28;20032;-59
2022/01/27 08:07:54;;;;;;;55.47;26.70;;;;;;;;;;5026247;28;20025;-59
2022/01/27 08:10:20;;;;;;;52.03;25.90;;;;;;;;;;5028617;28;20484;-59
2022/01/27 08:12:46;;;;;;;49.53;25.27;;;;;;;;;;5030808;28;20136;-60
2022/01/27 08:15:14;;;;;;;52.97;26.55;;;;;;;;;;5029665;28;20124;-60
2022/01/27 08:17:41;;;;;;;57.17;26.45;;;;;;;;;;5029691;28;20075;-60
2022/01/27 08:20:07;;;;;;;60.45;27.52;;;;;;;;;;5033145;28;20029;-59
2022/01/27 08:22:37;;;;;;;60.10;26.75;;;;;;;;;;5029460;28;20676;-60
2022/01/27 08:25:03;;;;;;;57.33;27.33;;;;;;;;;;5027332;28;20074;-59
2022/01/27 08:27:31;;;;;;;57.63;28.73;;;;;;;;;;5023191;28;20024;-59
2022/01/27 08:30:00;;;;;;;63.67;30.05;;;;;;;;;;5032176;28;20468;-59
2022/01/27 08:32:47;;;;;;;58.75;28.45;;;;;;;;;;5027598;28;20492;-59
2022/01/27 08:35:14;;;;;;;57.20;28.13;;;;;;;;;;5028394;28;20029;-60
2022/01/27 08:37:40;;;;;;;62.08;28.85;;;;;;;;;;5029105;28;20037;-59
2022/01/27 08:40:07;;;;;;;58.15;28.63;;;;;;;;;;5028169;28;20052;-59
2022/01/27 08:42:33;;;;;;;65.70;30.50;;;;;;;;;;5032299;28;20035;-59
2022/01/27 08:44:59;;;;;;;65.45;30.58;;;;;;;;;;5029905;28;20388;-59
2022/01/27 08:47:26;;;;;;;65.55;29.38;;;;;;;;;;5030649;28;20044;-59
2022/01/27 08:49:52;;;;;;;62.42;30.40;;;;;;;;;;5029063;28;20021;-59
2022/01/27 08:52:18;;;;;;;59.70;29.42;;;;;;;;;;5032685;28;20017;-59
2022/01/27 08:54:44;;;;;;;60.80;28.85;;;;;;;;;;5027500;28;20044;-60
2022/01/27 08:57:12;;;;;;;67.68;31.42;;;;;;;;;;5030709;28;20096;-59
2022/01/27 08:59:38;;;;;;;68.40;30.85;;;;;;;;;;5026675;28;20183;-59
2022/01/27 09:02:04;;;;;;;67.78;32.35;;;;;;;;;;5025995;28;20098;-59
2022/01/27 09:04:30;;;;;;;73.60;31.73;;;;;;;;;;5028883;28;20029;-59
2022/01/27 09:06:56;;;;;;;65.60;32.58;;;;;;;;;;5029619;28;20179;-59
2022/01/27 09:09:22;;;;;;;68.68;30.95;;;;;;;;;;5028968;28;20013;-59
2022/01/27 09:11:48;;;;;;;63.45;31.27;;;;;;;;;;5028227;28;20025;-59
2022/01/27 09:14:14;;;;;;;69.00;33.28;;;;;;;;;;5030711;28;20049;-59
2022/01/27 09:16:40;;;;;;;66.88;32.90;;;;;;;;;;5025215;28;20025;-59
2022/01/27 09:19:07;;;;;;;70.65;33.72;;;;;;;;;;5026860;28;20314;-59
2022/01/27 09:21:45;;;;;;;71.80;33.28;;;;;;;;;;5026573;28;20057;-59
2022/01/27 09:24:19;;;;;;;72.90;33.58;;;;;;;;;;5025477;28;20627;-59
2022/01/27 09:29:15;;;;;;;69.75;31.92;;;;;;;;;;5029035;28;20635;-59
2022/01/27 09:31:41;;;;;;;65.50;31.80;;;;;;;;;;5014716;28;20085;-58
2022/01/27 09:34:07;;;;;;;68.95;31.90;;;;;;;;;;5008338;28;20617;-59
2022/01/27 09:36:33;;;;;;;74.75;33.08;;;;;;;;;;5010351;28;20037;-58
2022/01/27 09:38:59;;;;;;;72.35;33.28;;;;;;;;;;5005842;28;20029;-58
2022/01/27 09:41:27;;;;;;;65.85;32.15;;;;;;;;;;5010425;28;20120;-58
2022/01/27 09:43:54;;;;;;;70.50;33.15;;;;;;;;;;5009819;28;20163;-58
2022/01/27 09:46:21;;;;;;;73.60;32.83;;;;;;;;;;5007334;28;20630;-58
2022/01/27 09:48:48;;;;;;;67.35;30.88;;;;;;;;;;5012409;28;20038;-59
2022/01/27 09:51:26;;;;;;;66.63;32.20;;;;;;;;;;5015011;28;20025;-58
2022/01/27 09:53:53;;;;;;;62.28;32.33;;;;;;;;;;5012010;28;20025;-58
2022/01/27 09:56:19;;;;;;;66.63;32.45;;;;;;;;;;5012367;28;20033;-58
2022/01/27 09:58:45;;;;;;;62.38;31.92;;;;;;;;;;5015846;28;20033;-58
2022/01/27 10:01:11;;;;;;;68.13;30.90;;;;;;;;;;5023359;28;20109;-58
2022/01/27 10:03:53;;;;;;;69.18;32.50;;;;;;;;;;5026376;28;20078;-58
2022/01/27 10:06:19;;;;;;;66.43;32.83;;;;;;;;;;5021674;28;20017;-58
2022/01/27 10:08:45;;;;;;;63.85;31.38;;;;;;;;;;5023489;28;20234;-58
2022/01/27 10:11:18;;;;;;;71.28;33.33;;;;;;;;;;5026278;28;20048;-58
2022/01/27 10:13:47;;;;;;;72.55;32.42;;;;;;;;;;5028663;28;20125;-59
2022/01/27 10:16:27;;;;;;;72.43;32.72;;;;;;;;;;5022314;28;20032;-58
2022/01/27 10:19:03;;;;;;;68.70;32.78;;;;;;;;;;5025426;28;20036;-59
2022/01/27 10:21:33;;;;;;;65.18;30.90;;;;;;;;;;5028043;28;20039;-59
2022/01/27 10:24:13;;;;;;;64.47;30.38;;;;;;;;;;5028460;28;20777;-59
2022/01/27 10:26:44;;;;;;;63.33;30.38;;;;;;;;;;5025162;28;20144;-59
2022/01/27 10:29:16;;;;;;;63.75;30.60;;;;;;;;;;5029977;28;20108;-59
2022/01/27 10:31:42;;;;;;;62.22;29.65;;;;;;;;;;5026317;28;20495;-58
2022/01/27 10:34:10;;;;;;;58.00;28.10;;;;;;;;;;5028370;28;20380;-59
2022/01/27 10:36:40;;;;;;;60.45;29.13;;;;;;;;;;5026080;28;20033;-58
2022/01/27 10:39:10;;;;;;;53.38;28.63;;;;;;;;;;5025832;28;20804;-58
2022/01/27 10:41:38;;;;;;;57.20;27.80;;;;;;;;;;5025008;28;20029;-58
2022/01/27 10:44:11;;;;;;;54.28;27.58;;;;;;;;;;5028756;28;20029;-58
2022/01/27 10:46:44;;;;;;;59.20;27.90;;;;;;;;;;5025198;28;20029;-58
2022/01/27 10:49:19;;;;;;;44.47;23.08;;;;;;;;;;5026413;28;20021;-58
2022/01/27 10:51:50;;;;;;;51.08;26.52;;;;;;;;;;5030353;28;20230;-58
2022/01/27 10:54:34;;;;;;;49.47;25.60;;;;;;;;;;5032048;28;20481;-59
2022/01/27 10:57:04;;;;;;;47.20;25.30;;;;;;;;;;5030133;28;20459;-58
2022/01/27 10:59:32;;;;;;;49.03;25.33;;;;;;;;;;5030761;28;20554;-58
2022/01/27 11:01:58;;;;;;;45.40;24.70;;;;;;;;;;5030563;28;20025;-58
2022/01/27 11:04:33;;;;;;;46.38;25.08;;;;;;;;;;5030446;28;20087;-59
2022/01/27 11:07:01;;;;;;;47.92;25.02;;;;;;;;;;5028697;28;20024;-59
2022/01/27 11:09:28;;;;;;;43.90;23.27;;;;;;;;;;5032838;28;20038;-59
2022/01/27 11:11:56;;;;;;;47.50;24.75;;;;;;;;;;5026951;28;20028;-59
2022/01/27 11:14:25;;;;;;;44.78;23.98;;;;;;;;;;5032179;28;20108;-58
2022/01/27 11:16:55;;;;;;;46.05;23.92;;;;;;;;;;5031106;28;20025;-59
2022/01/27 11:19:39;;;;;;;43.67;24.40;;;;;;;;;;5032145;28;20037;-59
2022/01/27 11:22:12;;;;;;;43.72;23.30;;;;;;;;;;5028244;28;20568;-59
2022/01/27 11:27:32;;;;;;;45.10;23.00;;;;;;;;;;5018700;28;20185;-59
2022/01/27 11:30:10;;;;;;;43.92;22.67;;;;;;;;;;5032100;28;20018;-60
2022/01/27 11:32:37;;;;;;;43.20;24.38;;;;;;;;;;5029733;28;20771;-58
2022/01/27 11:35:15;;;;;;;38.33;21.30;;;;;;;;;;5028875;28;20040;-59
2022/01/27 11:37:41;;;;;;;45.15;23.77;;;;;;;;;;5030525;28;20037;-59
2022/01/27 11:40:08;;;;;;;43.90;24.10;;;;;;;;;;5029440;28;20132;-59
2022/01/27 11:42:37;;;;;;;41.45;24.17;;;;;;;;;;5031237;28;20428;-60
2022/01/27 11:45:21;;;;;;;42.17;23.88;;;;;;;;;;5026219;28;21083;-59
2022/01/27 11:47:58;;;;;;;46.92;24.50;;;;;;;;;;5028295;28;20061;-59
2022/01/27 11:50:33;;;;;;;45.85;24.90;;;;;;;;;;5033534;28;20430;-59
2022/01/27 11:53:00;;;;;;;46.72;25.23;;;;;;;;;;5033154;28;20144;-59
2022/01/27 11:55:26;;;;;;;48.83;24.55;;;;;;;;;;5026933;28;20462;-59
2022/01/27 11:57:53;;;;;;;47.63;25.05;;;;;;;;;;5028459;28;20038;-59
2022/01/27 12:00:23;;;;;;;46.13;25.08;;;;;;;;;;5032309;28;20070;-58
2022/01/27 12:03:01;;;;;;;49.08;26.30;;;;;;;;;;5030057;28;20035;-59
2022/01/27 12:05:30;;;;;;;46.35;25.60;;;;;;;;;;5026291;28;20036;-59
2022/01/27 12:08:19;;;;;;;51.47;26.75;;;;;;;;;;5028288;28;20032;-59
2022/01/27 12:10:52;;;;;;;44.80;25.42;;;;;;;;;;5027303;28;20642;-59
2022/01/27 12:13:28;;;;;;;53.20;28.25;;;;;;;;;;5028538;28;20026;-60
2022/01/27 12:19:04;;;;;;;50.38;27.38;;;;;;;;;;5029589;28;20102;-59
2022/01/27 12:21:36;;;;;;;47.17;26.40;;;;;;;;;;5030612;28;20112;-59
2022/01/27 12:26:49;;;;;;;47.13;27.27;;;;;;;;;;5028865;28;20037;-59
2022/01/27 12:29:24;;;;;;;48.25;26.48;;;;;;;;;;5027183;28;20418;-59
2022/01/27 12:31:51;;;;;;;47.10;26.63;;;;;;;;;;5025795;28;20416;-59
2022/01/27 12:34:17;;;;;;;45.38;25.92;;;;;;;;;;5030273;28;21873;-58
2022/01/27 12:36:57;;;;;;;45.53;27.25;;;;;;;;;;5031172;28;20024;-60
2022/01/27 12:39:24;;;;;;;45.25;26.75;;;;;;;;;;5028464;28;20043;-59
2022/01/27 12:41:50;;;;;;;46.88;26.35;;;;;;;;;;5027422;28;20116;-59
2022/01/27 12:44:17;;;;;;;50.78;27.45;;;;;;;;;;5031614;28;20597;-58
2022/01/27 12:47:02;;;;;;;50.53;28.27;;;;;;;;;;5028257;28;20025;-59
2022/01/27 12:49:37;;;;;;;48.03;27.17;;;;;;;;;;5025335;28;20026;-58
2022/01/27 12:52:06;;;;;;;46.88;26.83;;;;;;;;;;5029410;28;20033;-59
2022/01/27 12:54:33;;;;;;;47.13;27.42;;;;;;;;;;5029439;28;20025;-59
2022/01/27 12:56:59;;;;;;;45.58;26.10;;;;;;;;;;5029695;28;20029;-59
2022/01/27 12:59:29;;;;;;;44.85;25.58;;;;;;;;;;5028313;28;20107;-59
2022/01/27 13:01:58;;;;;;;49.13;27.42;;;;;;;;;;5028417;28;20060;-58
2022/01/27 13:04:25;;;;;;;45.55;25.85;;;;;;;;;;5026518;28;20079;-59
2022/01/27 13:06:55;;;;;;;39.70;24.75;;;;;;;;;;5024849;28;20029;-58
2022/01/27 13:09:22;;;;;;;43.05;26.40;;;;;;;;;;5028207;28;20026;-58
2022/01/27 13:11:50;;;;;;;41.70;25.30;;;;;;;;;;5025121;28;20022;-58
2022/01/27 13:14:17;;;;;;;43.47;25.10;;;;;;;;;;5028895;28;20578;-58
2022/01/27 13:16:47;;;;;;;42.30;24.75;;;;;;;;;;5023085;28;20021;-58
2022/01/27 13:19:35;;;;;;;37.90;24.25;;;;;;;;;;5028747;28;20021;-59
2022/01/27 13:22:01;;;;;;;42.78;25.00;;;;;;;;;;5028794;28;20032;-59
2022/01/27 13:24:30;;;;;;;37.05;24.05;;;;;;;;;;5022508;28;20267;-59
2022/01/27 13:27:10;;;;;;;39.92;23.80;;;;;;;;;;5027924;28;20888;-59
2022/01/27 13:30:02;;;;;;;36.45;23.75;;;;;;;;;;5028303;28;20028;-59
2022/01/27 13:32:28;;;;;;;35.78;23.08;;;;;;;;;;5025429;28;20041;-59
2022/01/27 13:34:54;;;;;;;37.50;24.35;;;;;;;;;;5025597;28;20238;-59
2022/01/27 13:37:33;;;;;;;36.40;23.38;;;;;;;;;;5029406;28;20108;-59
2022/01/27 13:42:56;;;;;;;39.30;24.35;;;;;;;;;;5027544;28;20368;-59
2022/01/27 13:45:22;;;;;;;43.08;25.30;;;;;;;;;;5025877;28;20052;-59
2022/01/27 13:47:48;;;;;;;41.88;26.30;;;;;;;;;;5024680;28;22096;-58
2022/01/27 13:50:15;;;;;;;159.63;99.30;;;;;;;;;;5024626;28;20091;-59
2022/01/27 13:52:43;;;;;;;44.03;27.42;;;;;;;;;;5027188;28;20044;-59
2022/01/27 13:55:10;;;;;;;50.35;29.20;;;;;;;;;;5028320;28;20610;-59
2022/01/27 13:57:47;;;;;;;48.33;29.15;;;;;;;;;;5026429;28;20037;-59
2022/01/27 14:00:15;;;;;;;49.58;30.92;;;;;;;;;;5028048;28;20480;-58
2022/01/27 14:02:43;;;;;;;48.30;29.48;;;;;;;;;;5026034;28;20489;-59
2022/01/27 14:05:15;;;;;;;51.45;29.77;;;;;;;;;;5026010;28;20049;-59
2022/01/27 14:07:42;;;;;;;53.00;32.28;;;;;;;;;;5027355;28;20227;-59
2022/01/27 14:10:08;;;;;;;50.20;29.85;;;;;;;;;;5028306;28;20029;-59
2022/01/27 14:13:01;;;;;;;53.53;32.45;;;;;;;;;;5025721;28;20150;-59
2022/01/27 14:15:30;;;;;;;59.67;33.53;;;;;;;;;;5028939;28;20128;-59
2022/01/27 14:18:01;;;;;;;58.05;32.63;;;;;;;;;;5026758;28;20032;-59
2022/01/27 14:20:27;;;;;;;57.40;33.42;;;;;;;;;;5026740;28;20041;-59
2022/01/27 14:23:14;;;;;;;55.72;33.05;;;;;;;;;;5027959;28;20033;-59
2022/01/27 14:25:54;;;;;;;62.63;34.90;;;;;;;;;;5024289;28;20063;-59
2022/01/27 14:28:21;;;;;;;61.55;33.30;;;;;;;;;;5026233;28;20084;-58
2022/01/27 14:30:47;;;;;;;60.42;35.97;;;;;;;;;;5027729;28;20029;-59
2022/01/27 14:33:13;;;;;;;61.47;35.20;;;;;;;;;;5028857;28;20044;-59
2022/01/27 14:35:39;;;;;;;64.15;36.22;;;;;;;;;;5025142;28;20087;-59
2022/01/27 14:38:05;;;;;;;59.33;35.33;;;;;;;;;;5024479;28;20038;-58
2022/01/27 14:40:32;;;;;;;62.72;35.50;;;;;;;;;;5022581;28;20392;-59